Time;durP1;ratioP1;P1;durP2;ratioP2;P2;SDS_P1;SDS_P2;PMS_P1;PMS_P2;Temp;Humidity;BMP_temperature;BMP_pressure;BME280_temperature;BME280_humidity;BME280_pressure;Samples;Min_cycle;Max_cycle;Signal;HPM_P1;HPM_P2
2023/08/07 00:01:15;;;;;;;2.10;1.03;;;11.80;99.90;;;;;;5085791;28;20649;-73
2023/08/07 00:03:41;;;;;;;1.20;1.10;;;11.70;99.90;;;;;;5093315;28;20736;-73
2023/08/07 00:06:08;;;;;;;1.60;1.10;;;11.70;99.90;;;;;;5087480;28;20795;-73
2023/08/07 00:08:38;;;;;;;1.10;1.03;;;11.60;99.90;;;;;;5089021;28;20665;-73
2023/08/07 00:11:08;;;;;;;0.90;0.90;;;11.60;99.90;;;;;;5094199;28;20661;-73
2023/08/07 00:13:34;;;;;;;5.50;1.00;;;11.60;99.90;;;;;;5089904;28;20672;-73
2023/08/07 00:16:01;;;;;;;1.70;1.13;;;11.60;99.90;;;;;;5095499;28;21222;-73
2023/08/07 00:18:28;;;;;;;1.17;0.90;;;11.50;99.90;;;;;;5096748;28;20626;-73
2023/08/07 00:20:55;;;;;;;1.23;1.00;;;11.60;99.90;;;;;;5095494;28;21235;-73
2023/08/07 00:23:22;;;;;;;1.30;1.17;;;11.70;99.90;;;;;;5082109;28;20632;-73
2023/08/07 00:25:50;;;;;;;1.03;0.83;;;11.60;99.90;;;;;;5090190;28;20676;-73
2023/08/07 00:28:17;;;;;;;1.20;0.80;;;11.50;99.90;;;;;;5090536;28;21048;-73
2023/08/07 00:30:43;;;;;;;0.70;0.70;;;11.50;99.90;;;;;;5095159;28;20995;-72
2023/08/07 00:33:11;;;;;;;1.43;1.17;;;11.60;99.90;;;;;;5088073;28;20620;-73
2023/08/07 00:35:38;;;;;;;1.37;1.17;;;11.60;99.90;;;;;;5090007;28;21417;-73
2023/08/07 00:38:05;;;;;;;1.50;1.40;;;11.70;99.90;;;;;;5090384;28;20633;-73
2023/08/07 00:40:38;;;;;;;0.83;0.83;;;11.70;99.90;;;;;;5089679;28;20648;-73
2023/08/07 00:43:06;;;;;;;1.27;0.80;;;11.70;99.90;;;;;;5094916;28;20625;-73
2023/08/07 00:45:37;;;;;;;1.50;1.10;;;11.70;99.90;;;;;;5098852;28;20775;-73
2023/08/07 00:48:05;;;;;;;1.17;1.13;;;11.70;99.90;;;;;;5098650;28;20613;-73
2023/08/07 00:50:32;;;;;;;1.13;0.83;;;11.70;99.90;;;;;;5089665;28;20738;-73
2023/08/07 00:53:00;;;;;;;0.83;0.83;;;11.60;99.90;;;;;;5090178;28;20629;-73
2023/08/07 00:55:27;;;;;;;2.43;1.13;;;11.70;99.90;;;;;;5090188;28;20648;-73
2023/08/07 00:57:54;;;;;;;0.80;0.80;;;11.70;99.90;;;;;;5089556;28;20617;-73
2023/08/07 01:00:22;;;;;;;0.80;0.73;;;11.60;99.90;;;;;;5089211;28;20623;-73
2023/08/07 01:02:51;;;;;;;1.20;0.90;;;11.60;99.90;;;;;;5096362;28;20977;-73
2023/08/07 01:05:19;;;;;;;2.23;1.20;;;11.70;99.90;;;;;;5089273;28;20631;-73
2023/08/07 01:07:48;;;;;;;0.93;0.93;;;11.70;99.90;;;;;;5086804;28;20732;-73
2023/08/07 01:10:15;;;;;;;1.77;1.33;;;11.70;99.90;;;;;;5098071;28;20678;-73
2023/08/07 01:12:49;;;;;;;2.67;0.97;;;11.70;99.90;;;;;;5098390;27;21259;-73
2023/08/07 01:15:22;;;;;;;1.60;0.83;;;11.70;99.90;;;;;;5096568;28;21199;-73
2023/08/07 01:17:53;;;;;;;1.27;1.17;;;11.60;99.90;;;;;;5089837;28;20624;-73
2023/08/07 01:20:21;;;;;;;0.90;0.90;;;11.70;99.90;;;;;;5095637;28;20619;-73
2023/08/07 01:22:49;;;;;;;2.97;1.30;;;11.70;99.90;;;;;;5087080;28;20681;-73
2023/08/07 01:25:17;;;;;;;1.67;1.57;;;11.70;99.90;;;;;;5088085;28;20632;-73
2023/08/07 01:27:53;;;;;;;1.47;1.37;;;11.60;99.90;;;;;;5089392;28;20637;-73
2023/08/07 01:30:30;;;;;;;1.13;1.07;;;11.60;99.90;;;;;;5089703;28;21043;-73
2023/08/07 01:33:04;;;;;;;1.90;1.30;;;11.60;99.90;;;;;;5089805;28;20635;-73
2023/08/07 01:35:36;;;;;;;1.80;1.37;;;11.70;99.90;;;;;;5082927;28;20737;-73
2023/08/07 01:38:05;;;;;;;0.90;0.90;;;11.70;99.90;;;;;;5094622;28;20750;-73
2023/08/07 01:40:34;;;;;;;3.57;1.40;;;11.70;99.90;;;;;;5088498;28;20653;-73
2023/08/07 01:43:01;;;;;;;1.13;1.13;;;11.70;99.90;;;;;;5078994;28;20624;-73
2023/08/07 01:45:30;;;;;;;2.20;1.23;;;11.70;99.90;;;;;;5097120;28;20664;-73
2023/08/07 01:47:58;;;;;;;0.97;0.97;;;11.60;99.90;;;;;;5088889;28;20640;-73
2023/08/07 01:50:25;;;;;;;1.20;1.00;;;11.70;99.90;;;;;;5095225;28;21215;-73
2023/08/07 01:52:53;;;;;;;1.67;1.37;;;11.70;99.90;;;;;;5103878;28;20664;-73
2023/08/07 01:55:23;;;;;;;1.77;1.30;;;11.80;99.90;;;;;;5099558;28;20620;-73
2023/08/07 01:57:52;;;;;;;1.73;0.87;;;11.70;99.90;;;;;;5096545;28;21292;-73
2023/08/07 02:00:21;;;;;;;1.40;1.20;;;11.80;99.90;;;;;;5097469;28;20946;-73
2023/08/07 02:02:49;;;;;;;0.97;0.97;;;11.70;99.90;;;;;;5093294;28;20718;-73
2023/08/07 02:05:17;;;;;;;1.60;1.20;;;11.80;99.90;;;;;;5093007;28;20617;-73
2023/08/07 02:07:45;;;;;;;2.30;1.30;;;11.80;99.90;;;;;;5095209;28;21032;-73
2023/08/07 02:10:12;;;;;;;0.77;0.77;;;11.80;99.90;;;;;;5096735;28;20712;-73
2023/08/07 02:12:40;;;;;;;1.00;0.93;;;11.70;99.90;;;;;;5095554;28;20667;-73
2023/08/07 02:15:08;;;;;;;1.73;1.10;;;11.80;99.90;;;;;;5088930;28;20984;-73
2023/08/07 02:17:38;;;;;;;1.00;0.80;;;11.70;99.90;;;;;;5095821;28;20712;-73
2023/08/07 02:20:06;;;;;;;1.30;1.20;;;11.70;99.90;;;;;;5092715;28;21200;-73
2023/08/07 02:22:34;;;;;;;1.20;1.03;;;11.70;99.90;;;;;;5087420;28;20788;-73
2023/08/07 02:25:02;;;;;;;1.13;0.80;;;11.70;99.90;;;;;;5084447;28;20986;-73
2023/08/07 02:27:30;;;;;;;0.87;0.87;;;11.70;99.90;;;;;;5087951;28;21232;-73
2023/08/07 02:29:59;;;;;;;1.47;1.00;;;11.80;99.90;;;;;;5090589;28;20633;-73
2023/08/07 02:32:27;;;;;;;1.10;1.10;;;11.80;99.90;;;;;;5092583;28;21232;-73
2023/08/07 02:34:55;;;;;;;2.60;1.97;;;11.80;99.90;;;;;;5088347;28;20632;-73
2023/08/07 02:37:23;;;;;;;1.50;1.23;;;11.70;99.90;;;;;;5096954;28;20666;-73
2023/08/07 02:39:50;;;;;;;1.10;1.10;;;11.70;99.90;;;;;;5095566;28;20627;-73
2023/08/07 02:42:18;;;;;;;1.20;1.10;;;11.70;99.90;;;;;;5084349;28;21217;-73
2023/08/07 02:44:45;;;;;;;0.70;0.70;;;11.70;99.90;;;;;;5094709;28;20620;-73
2023/08/07 02:47:15;;;;;;;3.57;1.17;;;11.60;99.90;;;;;;5089976;28;20791;-73
2023/08/07 02:49:42;;;;;;;1.67;0.97;;;11.70;99.90;;;;;;5088782;28;20621;-73
2023/08/07 02:52:09;;;;;;;1.30;1.20;;;11.60;99.90;;;;;;5088042;28;21100;-73
2023/08/07 02:54:37;;;;;;;1.30;1.20;;;11.70;99.90;;;;;;5080636;28;20625;-72
2023/08/07 02:57:05;;;;;;;1.20;1.10;;;11.70;99.90;;;;;;5088317;28;20710;-73
2023/08/07 02:59:34;;;;;;;4.00;1.20;;;11.70;99.90;;;;;;5096021;28;20678;-73
2023/08/07 03:02:01;;;;;;;1.50;1.40;;;11.50;99.90;;;;;;5093580;28;20706;-72
2023/08/07 03:04:31;;;;;;;1.60;1.50;;;11.50;99.90;;;;;;5087452;28;20621;-73
2023/08/07 03:06:58;;;;;;;5.77;1.10;;;11.50;99.90;;;;;;5086991;28;20800;-72
2023/08/07 03:09:27;;;;;;;1.10;1.00;;;11.50;99.90;;;;;;5095807;28;21287;-73
2023/08/07 03:11:55;;;;;;;1.10;1.00;;;11.50;99.90;;;;;;5096654;28;20641;-73
2023/08/07 03:14:23;;;;;;;0.87;0.87;;;11.50;99.90;;;;;;5096098;28;20989;-73
2023/08/07 03:16:50;;;;;;;1.10;0.80;;;11.40;99.90;;;;;;5090752;28;20667;-73
2023/08/07 03:19:17;;;;;;;5.43;1.63;;;11.50;99.90;;;;;;5089244;28;20717;-72
2023/08/07 03:21:45;;;;;;;3.13;2.17;;;11.40;99.90;;;;;;5087730;28;20732;-73
2023/08/07 03:24:11;;;;;;;1.00;0.90;;;11.30;99.90;;;;;;5086023;28;20753;-73
2023/08/07 03:26:38;;;;;;;1.83;1.13;;;11.30;99.90;;;;;;5087612;28;20665;-73
2023/08/07 03:29:05;;;;;;;1.60;0.97;;;11.30;99.90;;;;;;5086504;28;20635;-73
2023/08/07 03:31:32;;;;;;;1.03;0.83;;;11.30;99.90;;;;;;5086182;28;21006;-73
2023/08/07 03:33:59;;;;;;;1.53;1.37;;;11.30;99.90;;;;;;5086252;28;20605;-73
2023/08/07 03:36:26;;;;;;;1.57;0.90;;;11.20;99.90;;;;;;5087445;28;20653;-73
2023/08/07 03:38:54;;;;;;;5.60;0.97;;;11.20;99.90;;;;;;5085390;28;20625;-72
2023/08/07 03:41:21;;;;;;;2.20;0.90;;;11.10;99.90;;;;;;5090680;28;20654;-73
2023/08/07 03:43:47;;;;;;;1.17;1.07;;;11.20;99.90;;;;;;5091573;28;20625;-73
2023/08/07 03:46:14;;;;;;;1.30;0.97;;;11.20;99.90;;;;;;5091287;28;20664;-73
2023/08/07 03:48:41;;;;;;;2.00;0.87;;;11.10;99.90;;;;;;5095292;28;20625;-73
2023/08/07 03:51:09;;;;;;;1.13;0.70;;;11.10;99.90;;;;;;5084076;28;20667;-72
2023/08/07 03:53:35;;;;;;;0.63;0.63;;;11.10;99.90;;;;;;5083353;28;20742;-72
2023/08/07 03:56:04;;;;;;;0.90;0.77;;;11.10;99.90;;;;;;5099564;28;20659;-72
2023/08/07 03:58:31;;;;;;;0.90;0.87;;;11.10;99.90;;;;;;5089216;28;21098;-73
2023/08/07 04:00:57;;;;;;;1.30;1.20;;;11.10;99.90;;;;;;5091035;28;20655;-73
2023/08/07 04:03:24;;;;;;;1.00;0.90;;;11.20;99.90;;;;;;5089236;28;21230;-73
2023/08/07 04:05:53;;;;;;;0.87;0.80;;;11.20;99.90;;;;;;5095090;28;20999;-73
2023/08/07 04:08:20;;;;;;;0.80;0.80;;;11.10;99.90;;;;;;5097371;28;21113;-72
2023/08/07 04:10:47;;;;;;;1.30;1.20;;;11.10;99.90;;;;;;5095628;28;20671;-73
2023/08/07 04:13:15;;;;;;;3.20;1.50;;;11.20;99.90;;;;;;5102390;28;20631;-73
2023/08/07 04:15:42;;;;;;;1.70;0.90;;;11.10;99.90;;;;;;5094913;28;20645;-73
2023/08/07 04:18:08;;;;;;;1.23;1.13;;;11.10;99.90;;;;;;5090397;28;20632;-73
2023/08/07 04:20:35;;;;;;;3.40;1.30;;;11.10;99.90;;;;;;5089894;28;20656;-72
2023/08/07 04:23:02;;;;;;;1.03;0.90;;;11.10;99.90;;;;;;5087323;28;20635;-73
2023/08/07 04:25:30;;;;;;;1.50;1.40;;;11.20;99.90;;;;;;5090730;28;20710;-73
2023/08/07 04:27:57;;;;;;;1.80;1.57;;;11.10;99.90;;;;;;5090549;28;20759;-73
2023/08/07 04:30:25;;;;;;;1.83;1.73;;;11.10;99.90;;;;;;5089652;28;20651;-73
2023/08/07 04:32:52;;;;;;;6.03;1.87;;;11.20;99.90;;;;;;5092989;28;20714;-73
2023/08/07 04:35:18;;;;;;;1.60;1.37;;;11.20;99.90;;;;;;5094967;28;20616;-73
2023/08/07 04:37:45;;;;;;;1.57;1.00;;;11.10;99.90;;;;;;5094398;28;20679;-73
2023/08/07 04:40:12;;;;;;;1.53;1.43;;;11.10;99.90;;;;;;5088701;28;20656;-73
2023/08/07 04:42:39;;;;;;;3.00;1.17;;;11.00;99.90;;;;;;5091436;28;20624;-73
2023/08/07 04:45:07;;;;;;;1.10;0.90;;;11.10;99.90;;;;;;5089098;28;20674;-72
2023/08/07 04:47:35;;;;;;;1.50;1.00;;;11.10;99.90;;;;;;5089459;28;20672;-73
2023/08/07 04:50:02;;;;;;;1.67;1.00;;;11.10;99.90;;;;;;5090865;28;20666;-72
2023/08/07 04:52:29;;;;;;;2.80;1.23;;;11.20;99.90;;;;;;5091085;28;21018;-73
2023/08/07 04:54:56;;;;;;;0.93;0.93;;;11.30;99.90;;;;;;5090905;28;20715;-73
2023/08/07 04:57:22;;;;;;;0.77;0.70;;;11.40;99.90;;;;;;5093477;28;20651;-72
2023/08/07 04:59:49;;;;;;;1.33;1.13;;;11.30;99.90;;;;;;5087148;28;20629;-73
2023/08/07 05:02:16;;;;;;;1.40;1.20;;;11.30;99.90;;;;;;5086102;28;20656;-72
2023/08/07 05:04:44;;;;;;;1.80;0.80;;;11.30;99.90;;;;;;5087531;28;20636;-72
2023/08/07 05:07:11;;;;;;;0.83;0.83;;;11.40;99.90;;;;;;5087208;28;20679;-72
2023/08/07 05:09:37;;;;;;;1.17;1.03;;;11.40;99.90;;;;;;5086648;28;20638;-72
2023/08/07 05:12:06;;;;;;;1.50;1.13;;;11.50;99.90;;;;;;5086335;28;20847;-71
2023/08/07 05:14:33;;;;;;;1.20;1.10;;;11.50;99.90;;;;;;5091266;28;20643;-72
2023/08/07 05:17:00;;;;;;;2.10;0.70;;;11.50;99.90;;;;;;5091225;28;20651;-72
2023/08/07 05:19:29;;;;;;;1.50;1.10;;;11.40;99.90;;;;;;5079946;28;20629;-72
2023/08/07 05:21:58;;;;;;;0.97;0.97;;;11.50;99.90;;;;;;5086320;28;21088;-72
2023/08/07 05:24:25;;;;;;;0.90;0.90;;;11.50;99.90;;;;;;5087665;28;21164;-72
2023/08/07 05:26:51;;;;;;;1.90;1.30;;;11.50;99.90;;;;;;5097482;28;20657;-71
2023/08/07 05:29:18;;;;;;;1.80;1.40;;;11.60;99.90;;;;;;5097526;28;20629;-71
2023/08/07 05:31:45;;;;;;;3.47;1.10;;;11.70;99.90;;;;;;5098038;28;20648;-72
2023/08/07 05:34:12;;;;;;;1.13;1.03;;;11.70;99.90;;;;;;5093338;28;20705;-72
2023/08/07 05:36:39;;;;;;;0.90;0.77;;;11.70;99.90;;;;;;5099139;28;20648;-72
2023/08/07 05:39:08;;;;;;;1.20;1.10;;;11.80;99.90;;;;;;5087919;28;21232;-71
2023/08/07 05:41:35;;;;;;;1.13;0.80;;;11.80;99.90;;;;;;5098148;28;20722;-72
2023/08/07 05:44:02;;;;;;;1.00;1.00;;;11.90;99.90;;;;;;5090121;28;20621;-71
2023/08/07 05:46:29;;;;;;;1.30;0.70;;;12.00;99.90;;;;;;5093941;28;20648;-72
2023/08/07 05:48:55;;;;;;;0.87;0.87;;;12.00;99.90;;;;;;5086381;28;20652;-72
2023/08/07 05:51:22;;;;;;;1.10;1.00;;;12.00;99.90;;;;;;5096817;28;20653;-72
2023/08/07 05:53:49;;;;;;;1.00;0.90;;;12.00;99.90;;;;;;5098048;28;20980;-72
2023/08/07 05:56:17;;;;;;;1.90;0.80;;;12.10;99.90;;;;;;5098812;28;20663;-72
2023/08/07 05:58:45;;;;;;;1.10;1.00;;;12.20;99.90;;;;;;5089025;28;20651;-72
2023/08/07 06:01:11;;;;;;;0.90;0.90;;;12.20;99.90;;;;;;5097648;28;20655;-73
2023/08/07 06:03:38;;;;;;;1.30;1.20;;;12.20;99.90;;;;;;5096228;28;20629;-72
2023/08/07 06:06:05;;;;;;;3.60;1.03;;;12.30;99.90;;;;;;5093240;28;20653;-72
2023/08/07 06:08:32;;;;;;;1.07;1.00;;;12.30;99.90;;;;;;5092674;28;20756;-72
2023/08/07 06:10:58;;;;;;;0.90;0.90;;;12.30;99.90;;;;;;5099872;28;20650;-71
2023/08/07 06:13:27;;;;;;;1.33;1.17;;;12.30;99.90;;;;;;5094774;28;20755;-72
2023/08/07 06:15:54;;;;;;;1.00;0.90;;;12.40;99.90;;;;;;5097806;28;20809;-72
2023/08/07 06:18:21;;;;;;;1.57;1.20;;;12.50;99.90;;;;;;5083606;28;20664;-72
2023/08/07 06:20:47;;;;;;;1.20;0.70;;;12.50;99.90;;;;;;5088439;28;20636;-72
2023/08/07 06:23:14;;;;;;;2.87;1.27;;;12.50;99.90;;;;;;5082206;28;20740;-72
2023/08/07 06:25:41;;;;;;;1.10;1.00;;;12.60;99.90;;;;;;5089498;28;20729;-72
2023/08/07 06:28:08;;;;;;;2.70;1.20;;;12.60;99.90;;;;;;5091943;28;21043;-72
2023/08/07 06:30:36;;;;;;;1.93;1.40;;;12.70;99.90;;;;;;5088443;28;20713;-72
2023/08/07 06:33:03;;;;;;;2.30;0.93;;;12.70;99.50;;;;;;5092195;28;20633;-72
2023/08/07 06:35:30;;;;;;;1.33;1.10;;;12.70;99.80;;;;;;5096499;28;20748;-71
2023/08/07 06:37:56;;;;;;;0.93;0.80;;;12.80;99.90;;;;;;5088244;28;20724;-72
2023/08/07 06:40:23;;;;;;;1.03;0.80;;;12.70;99.70;;;;;;5086291;28;20646;-72
2023/08/07 06:42:50;;;;;;;1.30;1.20;;;12.70;99.90;;;;;;5089927;28;20732;-71
2023/08/07 06:45:17;;;;;;;1.23;1.13;;;12.80;99.60;;;;;;5092641;28;20633;-72
2023/08/07 06:47:45;;;;;;;0.80;0.67;;;12.80;99.80;;;;;;5088440;28;20659;-71
2023/08/07 06:50:13;;;;;;;1.20;1.10;;;12.90;99.60;;;;;;5087603;28;20621;-72
2023/08/07 06:52:41;;;;;;;1.67;1.40;;;13.00;99.80;;;;;;5097071;28;20647;-72
2023/08/07 06:55:08;;;;;;;1.30;1.13;;;13.00;99.30;;;;;;5084456;28;21018;-72
2023/08/07 06:57:35;;;;;;;1.27;1.00;;;13.10;99.30;;;;;;5093618;28;20623;-71
2023/08/07 07:00:02;;;;;;;1.37;1.23;;;13.10;99.30;;;;;;5090393;28;21222;-72
2023/08/07 07:02:30;;;;;;;1.03;0.80;;;13.10;98.80;;;;;;5087457;28;20643;-71
2023/08/07 07:04:58;;;;;;;1.93;1.57;;;13.20;99.10;;;;;;5081993;28;20675;-72
2023/08/07 07:07:25;;;;;;;1.80;1.23;;;13.20;99.00;;;;;;5087531;28;20769;-72
2023/08/07 07:09:52;;;;;;;0.70;0.70;;;13.30;98.60;;;;;;5086965;28;20723;-72
2023/08/07 07:12:19;;;;;;;0.70;0.70;;;13.30;98.70;;;;;;5091353;28;20664;-72
2023/08/07 07:14:45;;;;;;;1.43;1.13;;;13.30;98.40;;;;;;5096589;28;20620;-72
2023/08/07 07:17:12;;;;;;;1.90;1.20;;;13.20;98.10;;;;;;5093754;28;20648;-72
2023/08/07 07:19:39;;;;;;;1.13;1.00;;;13.30;98.40;;;;;;5087349;28;20664;-71
2023/08/07 07:22:07;;;;;;;0.60;0.60;;;13.30;97.80;;;;;;5089297;28;21047;-71
2023/08/07 07:24:34;;;;;;;0.87;0.87;;;13.30;97.80;;;;;;5087830;28;20695;-71
2023/08/07 07:27:01;;;;;;;1.33;1.00;;;13.30;97.90;;;;;;5079442;28;20764;-72
2023/08/07 07:29:28;;;;;;;1.60;1.23;;;13.40;97.50;;;;;;5091167;28;20715;-72
2023/08/07 07:31:55;;;;;;;1.93;1.00;;;13.40;97.50;;;;;;5085431;28;20649;-72
2023/08/07 07:34:21;;;;;;;0.70;0.70;;;13.40;97.50;;;;;;5086649;28;20633;-72
2023/08/07 07:36:48;;;;;;;2.53;1.50;;;13.20;97.40;;;;;;5086494;28;20645;-71
2023/08/07 07:39:16;;;;;;;1.30;1.20;;;13.20;97.80;;;;;;5092228;28;21047;-72
2023/08/07 07:41:44;;;;;;;1.00;0.90;;;13.30;97.50;;;;;;5090351;28;20657;-72
2023/08/07 07:44:11;;;;;;;1.57;1.30;;;13.40;97.70;;;;;;5091356;28;20641;-71
2023/08/07 07:46:38;;;;;;;1.30;1.20;;;13.50;97.10;;;;;;5094193;28;20646;-71
2023/08/07 07:49:05;;;;;;;0.60;0.60;;;13.60;96.80;;;;;;5092140;28;20666;-71
2023/08/07 07:51:32;;;;;;;1.43;1.30;;;13.60;96.30;;;;;;5086631;28;21001;-72
2023/08/07 07:53:59;;;;;;;0.83;0.83;;;13.60;96.40;;;;;;5092206;28;20639;-71
2023/08/07 07:56:27;;;;;;;0.80;0.77;;;13.80;95.50;;;;;;5086597;28;20646;-72
2023/08/07 07:58:54;;;;;;;1.50;1.00;;;14.00;95.40;;;;;;5085596;28;21200;-71
2023/08/07 08:01:20;;;;;;;2.30;1.43;;;14.10;95.30;;;;;;5086531;28;21268;-72
2023/08/07 08:03:47;;;;;;;1.13;1.03;;;14.20;95.60;;;;;;5086961;28;20989;-72
2023/08/07 08:06:14;;;;;;;0.90;0.87;;;14.30;94.90;;;;;;5087159;28;20644;-71
2023/08/07 08:08:42;;;;;;;1.10;1.00;;;14.50;95.10;;;;;;5094766;28;20656;-72
2023/08/07 08:11:09;;;;;;;1.27;1.03;;;14.50;94.10;;;;;;5086139;28;21294;-72
2023/08/07 08:13:39;;;;;;;1.30;1.20;;;14.50;94.40;;;;;;5088919;28;20625;-72
2023/08/07 08:16:06;;;;;;;0.97;0.93;;;14.50;93.40;;;;;;5099743;28;20752;-72
2023/08/07 08:18:33;;;;;;;1.50;1.40;;;14.40;92.40;;;;;;5098890;28;21089;-71
2023/08/07 08:21:00;;;;;;;0.93;0.73;;;14.20;92.50;;;;;;5095070;28;20659;-72
2023/08/07 08:23:26;;;;;;;1.00;0.70;;;14.20;92.20;;;;;;5089332;28;20645;-72
2023/08/07 08:25:53;;;;;;;0.70;0.70;;;14.20;93.10;;;;;;5094204;28;20744;-72
2023/08/07 08:28:20;;;;;;;1.13;1.00;;;14.20;93.40;;;;;;5092993;28;20648;-72
2023/08/07 08:30:49;;;;;;;1.53;0.87;;;14.20;93.60;;;;;;5089072;28;20649;-71
2023/08/07 08:33:17;;;;;;;0.80;0.80;;;14.30;93.20;;;;;;5093735;28;20740;-72
2023/08/07 08:35:44;;;;;;;0.70;0.60;;;14.50;93.60;;;;;;5086796;28;20656;-72
2023/08/07 08:38:11;;;;;;;0.73;0.73;;;14.60;93.10;;;;;;5087070;28;20616;-72
2023/08/07 08:40:39;;;;;;;0.70;0.70;;;14.80;92.80;;;;;;5087412;28;20702;-72
2023/08/07 08:43:07;;;;;;;1.33;0.60;;;15.00;91.60;;;;;;5097214;28;20729;-71
2023/08/07 08:45:36;;;;;;;1.53;1.27;;;15.20;91.70;;;;;;5100586;28;20639;-72
2023/08/07 08:48:06;;;;;;;1.03;0.97;;;15.30;91.30;;;;;;5094153;28;20656;-72
2023/08/07 08:50:35;;;;;;;1.10;0.77;;;15.40;90.20;;;;;;5100105;28;21291;-72
2023/08/07 08:53:04;;;;;;;1.13;1.03;;;15.70;90.30;;;;;;5098699;28;20633;-72
2023/08/07 08:55:32;;;;;;;0.83;0.83;;;16.00;89.90;;;;;;5088145;28;20644;-71
2023/08/07 08:58:01;;;;;;;0.87;0.87;;;15.90;87.40;;;;;;5099446;28;20955;-72
2023/08/07 09:00:29;;;;;;;1.27;0.70;;;16.00;88.20;;;;;;5089807;28;20644;-71
2023/08/07 09:02:56;;;;;;;1.20;1.00;;;16.00;86.00;;;;;;5098925;28;20759;-72
2023/08/07 09:05:24;;;;;;;1.93;0.77;;;16.10;88.20;;;;;;5089868;28;21001;-72
2023/08/07 09:07:51;;;;;;;1.10;1.00;;;16.20;88.30;;;;;;5089801;28;20699;-71
2023/08/07 09:10:18;;;;;;;0.90;0.60;;;16.30;86.20;;;;;;5096679;28;20747;-72
2023/08/07 09:12:54;;;;;;;0.90;0.90;;;16.20;86.90;;;;;;5081623;28;20630;-72
2023/08/07 09:15:22;;;;;;;0.97;0.97;;;16.20;88.10;;;;;;5093167;28;20612;-72
2023/08/07 09:17:52;;;;;;;1.43;1.00;;;16.30;87.70;;;;;;5091172;28;20718;-72
2023/08/07 09:20:19;;;;;;;1.00;0.90;;;16.40;87.90;;;;;;5089303;28;20621;-72
2023/08/07 09:22:47;;;;;;;1.63;0.90;;;16.40;88.90;;;;;;5090106;28;20727;-72
2023/08/07 09:25:14;;;;;;;0.73;0.70;;;16.50;87.10;;;;;;5088777;28;21157;-72
2023/08/07 09:27:41;;;;;;;0.83;0.77;;;16.60;85.50;;;;;;5091110;28;20646;-72
2023/08/07 09:30:09;;;;;;;0.83;0.70;;;16.50;83.80;;;;;;5100853;28;20655;-72
2023/08/07 09:32:36;;;;;;;0.70;0.70;;;16.40;84.40;;;;;;5096735;28;20647;-72
2023/08/07 09:35:05;;;;;;;0.77;0.63;;;16.40;85.00;;;;;;5089779;28;20724;-72
2023/08/07 09:37:31;;;;;;;0.53;0.53;;;16.50;84.50;;;;;;5093309;28;21177;-72
2023/08/07 09:40:02;;;;;;;0.60;0.60;;;16.50;86.70;;;;;;5094340;28;20627;-72
2023/08/07 09:42:33;;;;;;;1.20;1.00;;;16.70;85.80;;;;;;5095514;28;20652;-72
2023/08/07 09:45:01;;;;;;;0.63;0.63;;;16.50;83.00;;;;;;5102079;28;20654;-72
2023/08/07 09:47:29;;;;;;;0.80;0.80;;;16.50;84.30;;;;;;5095603;28;20684;-72
2023/08/07 09:49:56;;;;;;;0.70;0.70;;;16.60;85.50;;;;;;5095990;28;20686;-72
2023/08/07 09:52:26;;;;;;;0.93;0.93;;;16.40;83.00;;;;;;5088797;28;20648;-72
2023/08/07 09:54:57;;;;;;;0.70;0.60;;;16.30;83.70;;;;;;5093331;28;20946;-72
2023/08/07 09:57:25;;;;;;;1.10;0.63;;;16.60;85.00;;;;;;5087790;28;20645;-72
2023/08/07 09:59:53;;;;;;;1.00;1.00;;;16.70;83.90;;;;;;5088470;28;20664;-72
2023/08/07 10:02:21;;;;;;;1.63;1.47;;;16.80;85.40;;;;;;5088658;28;21077;-72
2023/08/07 10:04:49;;;;;;;0.90;0.80;;;16.80;84.10;;;;;;5093876;28;21242;-72
2023/08/07 10:07:16;;;;;;;0.93;0.83;;;16.90;84.20;;;;;;5088467;28;20657;-72
2023/08/07 10:09:43;;;;;;;1.70;1.10;;;16.80;84.20;;;;;;5085292;28;21052;-72
2023/08/07 10:12:12;;;;;;;1.07;0.97;;;16.80;84.40;;;;;;5096990;28;21243;-72
2023/08/07 10:14:42;;;;;;;1.33;1.23;;;16.60;84.50;;;;;;5095852;28;20625;-72
2023/08/07 10:17:09;;;;;;;1.13;0.87;;;16.80;85.40;;;;;;5096662;28;20648;-72
2023/08/07 10:19:38;;;;;;;0.73;0.73;;;17.20;85.80;;;;;;5097101;28;20625;-72
2023/08/07 10:22:06;;;;;;;0.93;0.87;;;17.30;85.30;;;;;;5095689;28;20648;-72
2023/08/07 10:24:36;;;;;;;1.20;1.00;;;17.50;84.70;;;;;;5094621;28;20634;-72
2023/08/07 10:27:02;;;;;;;1.07;0.97;;;17.50;87.50;;;;;;5087937;28;20644;-72
2023/08/07 10:29:30;;;;;;;0.73;0.73;;;17.60;83.50;;;;;;5089080;28;21259;-72
2023/08/07 10:31:59;;;;;;;1.23;1.20;;;17.40;83.10;;;;;;5097555;28;20645;-71
2023/08/07 10:34:29;;;;;;;0.77;0.77;;;17.10;80.80;;;;;;5094763;28;20628;-72
2023/08/07 10:36:56;;;;;;;1.63;1.13;;;17.20;81.20;;;;;;5097715;28;20661;-72
2023/08/07 10:39:23;;;;;;;1.80;1.07;;;17.30;82.10;;;;;;5089272;28;20686;-72
2023/08/07 10:41:54;;;;;;;1.23;1.00;;;17.30;81.70;;;;;;5093644;28;20644;-72
2023/08/07 10:44:22;;;;;;;1.10;1.00;;;17.10;78.50;;;;;;5085958;28;20648;-72
2023/08/07 10:46:50;;;;;;;2.60;1.10;;;17.10;79.40;;;;;;5096253;28;21210;-72
2023/08/07 10:49:36;;;;;;;1.23;0.90;;;17.00;80.00;;;;;;5090000;28;20668;-72
2023/08/07 10:52:04;;;;;;;1.33;1.17;;;17.20;81.70;;;;;;5089819;28;21286;-72
2023/08/07 10:54:41;;;;;;;0.80;0.73;;;16.90;78.70;;;;;;5091876;28;20671;-72
2023/08/07 10:57:12;;;;;;;1.73;1.17;;;16.70;77.00;;;;;;5096372;28;20744;-72
2023/08/07 10:59:39;;;;;;;0.70;0.70;;;16.90;79.90;;;;;;5088696;28;20617;-72
2023/08/07 11:02:12;;;;;;;1.67;1.10;;;17.10;78.70;;;;;;5086705;28;20653;-71
2023/08/07 11:04:40;;;;;;;0.97;0.90;;;17.10;79.10;;;;;;5084308;28;20723;-72
2023/08/07 11:07:07;;;;;;;0.97;0.93;;;17.10;79.80;;;;;;5087215;28;21275;-72
2023/08/07 11:09:35;;;;;;;1.00;0.97;;;17.20;80.10;;;;;;5086499;28;20657;-71
2023/08/07 11:12:01;;;;;;;1.40;1.30;;;17.50;82.20;;;;;;5087964;28;20644;-72
2023/08/07 11:14:28;;;;;;;1.47;1.33;;;17.90;82.30;;;;;;5095366;28;20625;-72
2023/08/07 11:16:55;;;;;;;1.40;1.30;;;18.40;79.20;;;;;;5095380;28;20938;-72
2023/08/07 11:19:24;;;;;;;1.67;1.30;;;18.30;78.10;;;;;;5086705;28;21192;-72
2023/08/07 11:21:52;;;;;;;1.10;1.00;;;17.90;77.00;;;;;;5098748;28;21010;-72
2023/08/07 11:24:21;;;;;;;1.50;1.40;;;17.60;78.10;;;;;;5094793;28;21198;-72
2023/08/07 11:26:48;;;;;;;1.03;0.93;;;17.30;78.30;;;;;;5091862;28;20752;-72
2023/08/07 11:29:17;;;;;;;0.80;0.80;;;17.00;80.10;;;;;;5090562;28;20739;-71
2023/08/07 11:31:44;;;;;;;1.77;1.00;;;17.10;81.00;;;;;;5084371;28;20644;-72
2023/08/07 11:34:12;;;;;;;1.13;1.13;;;16.90;81.80;;;;;;5094815;28;21253;-72
2023/08/07 11:36:43;;;;;;;1.40;1.30;;;16.80;79.60;;;;;;5095775;28;20651;-72
2023/08/07 11:39:12;;;;;;;0.90;0.90;;;16.40;82.10;;;;;;5089623;28;21168;-71
2023/08/07 11:41:40;;;;;;;0.80;0.80;;;16.30;82.80;;;;;;5091835;28;20644;-72
2023/08/07 11:44:08;;;;;;;1.53;1.20;;;16.10;83.00;;;;;;5088582;28;20958;-72
2023/08/07 11:46:36;;;;;;;1.63;1.50;;;16.00;83.90;;;;;;5099118;28;20989;-72
2023/08/07 11:49:04;;;;;;;1.47;1.37;;;16.00;84.80;;;;;;5091017;28;20656;-72
2023/08/07 11:51:31;;;;;;;1.03;0.93;;;15.90;84.40;;;;;;5086840;28;20656;-72
2023/08/07 11:53:58;;;;;;;1.33;1.23;;;15.90;83.80;;;;;;5095779;28;20724;-72
2023/08/07 11:56:26;;;;;;;1.30;1.20;;;15.80;82.60;;;;;;5086650;28;20655;-71
2023/08/07 11:58:53;;;;;;;0.87;0.87;;;15.70;82.40;;;;;;5091652;28;20620;-71
2023/08/07 12:01:21;;;;;;;1.07;0.97;;;15.60;83.60;;;;;;5095706;28;20655;-71
2023/08/07 12:03:53;;;;;;;1.43;1.37;;;15.50;83.40;;;;;;5092138;28;20635;-71
2023/08/07 12:06:20;;;;;;;1.37;1.27;;;15.50;85.70;;;;;;5091730;28;20652;-72
2023/08/07 12:08:51;;;;;;;1.30;1.17;;;15.50;86.90;;;;;;5098541;28;20642;-71
2023/08/07 12:11:18;;;;;;;1.03;1.03;;;15.50;88.30;;;;;;5097680;28;20649;-72
2023/08/07 12:13:46;;;;;;;1.03;0.97;;;15.40;90.10;;;;;;5098762;28;20624;-71
2023/08/07 12:16:15;;;;;;;1.90;1.50;;;15.30;90.50;;;;;;5089290;28;20747;-71
2023/08/07 12:18:45;;;;;;;1.70;1.60;;;15.30;90.50;;;;;;5096418;28;20635;-72
2023/08/07 12:21:11;;;;;;;1.47;1.23;;;15.40;91.60;;;;;;5096521;28;20645;-71
2023/08/07 12:23:38;;;;;;;1.13;1.03;;;15.40;91.50;;;;;;5090674;28;20625;-71
2023/08/07 12:26:06;;;;;;;1.43;1.33;;;15.20;91.90;;;;;;5091160;28;21236;-72
2023/08/07 12:28:33;;;;;;;1.70;1.60;;;15.10;92.60;;;;;;5098808;28;21177;-71
2023/08/07 12:31:01;;;;;;;1.60;1.50;;;15.10;92.30;;;;;;5097995;28;20668;-72
2023/08/07 12:33:29;;;;;;;1.90;1.23;;;15.30;93.00;;;;;;5092120;28;21180;-72
2023/08/07 12:35:58;;;;;;;1.40;1.30;;;15.30;92.10;;;;;;5089046;28;20660;-71
2023/08/07 12:38:25;;;;;;;2.50;1.30;;;15.40;92.80;;;;;;5098841;28;20620;-73
2023/08/07 12:40:52;;;;;;;2.53;1.50;;;15.50;92.30;;;;;;5088719;28;20648;-73
2023/08/07 12:43:19;;;;;;;1.67;1.27;;;15.70;92.10;;;;;;5099186;28;20612;-73
2023/08/07 12:45:46;;;;;;;1.33;1.30;;;15.80;91.90;;;;;;5098953;28;20653;-73
2023/08/07 12:48:14;;;;;;;1.80;1.20;;;16.30;92.10;;;;;;5100862;28;21048;-73
2023/08/07 12:50:41;;;;;;;1.30;1.20;;;16.60;92.20;;;;;;5088768;28;20974;-73